sensor_id;sensor_type;location;lat;lon;timestamp;P1;durP1;ratioP1;P2;durP2;ratioP2
62258;SDS011;48241;48.824;10.102;2023-07-16T00:00:57;7.97;;;7.28;;
62258;SDS011;48241;48.824;10.102;2023-07-16T00:03:23;8.55;;;7.18;;
62258;SDS011;48241;48.824;10.102;2023-07-16T00:05:49;9.85;;;7.03;;
62258;SDS011;48241;48.824;10.102;2023-07-16T00:08:16;8.30;;;6.05;;
62258;SDS011;48241;48.824;10.102;2023-07-16T00:10:41;6.72;;;4.68;;
62258;SDS011;48241;48.824;10.102;2023-07-16T00:13:07;6.30;;;5.20;;
62258;SDS011;48241;48.824;10.102;2023-07-16T00:15:32;6.95;;;5.53;;
62258;SDS011;48241;48.824;10.102;2023-07-16T00:17:58;5.55;;;4.82;;
62258;SDS011;48241;48.824;10.102;2023-07-16T00:20:23;6.03;;;4.20;;
62258;SDS011;48241;48.824;10.102;2023-07-16T00:22:50;5.25;;;4.13;;
62258;SDS011;48241;48.824;10.102;2023-07-16T00:25:15;6.30;;;4.18;;
62258;SDS011;48241;48.824;10.102;2023-07-16T00:27:41;8.93;;;4.90;;
62258;SDS011;48241;48.824;10.102;2023-07-16T00:30:07;5.45;;;4.35;;
62258;SDS011;48241;48.824;10.102;2023-07-16T00:32:33;6.13;;;4.35;;
62258;SDS011;48241;48.824;10.102;2023-07-16T00:34:58;4.70;;;3.95;;
62258;SDS011;48241;48.824;10.102;2023-07-16T00:37:25;3.97;;;3.45;;
62258;SDS011;48241;48.824;10.102;2023-07-16T00:39:51;3.97;;;3.67;;
62258;SDS011;48241;48.824;10.102;2023-07-16T00:42:16;8.77;;;4.10;;
62258;SDS011;48241;48.824;10.102;2023-07-16T00:44:42;5.30;;;4.07;;
62258;SDS011;48241;48.824;10.102;2023-07-16T00:47:08;5.13;;;3.67;;
62258;SDS011;48241;48.824;10.102;2023-07-16T00:49:34;5.85;;;3.95;;
62258;SDS011;48241;48.824;10.102;2023-07-16T00:52:00;5.10;;;3.88;;
62258;SDS011;48241;48.824;10.102;2023-07-16T00:54:27;3.85;;;3.45;;
62258;SDS011;48241;48.824;10.102;2023-07-16T00:56:54;5.65;;;3.72;;
62258;SDS011;48241;48.824;10.102;2023-07-16T00:59:20;4.68;;;3.63;;
62258;SDS011;48241;48.824;10.102;2023-07-16T01:01:46;5.05;;;3.47;;
62258;SDS011;48241;48.824;10.102;2023-07-16T01:04:11;3.85;;;3.45;;
62258;SDS011;48241;48.824;10.102;2023-07-16T01:06:41;3.90;;;2.67;;
62258;SDS011;48241;48.824;10.102;2023-07-16T01:11:45;4.55;;;2.40;;
62258;SDS011;48241;48.824;10.102;2023-07-16T01:14:12;3.67;;;2.08;;
62258;SDS011;48241;48.824;10.102;2023-07-16T01:16:38;2.17;;;1.92;;
62258;SDS011;48241;48.824;10.102;2023-07-16T01:19:05;3.30;;;2.10;;
62258;SDS011;48241;48.824;10.102;2023-07-16T01:21:32;2.40;;;1.83;;
62258;SDS011;48241;48.824;10.102;2023-07-16T01:27:17;1.70;;;1.30;;
62258;SDS011;48241;48.824;10.102;2023-07-16T01:30:07;2.38;;;1.35;;
62258;SDS011;48241;48.824;10.102;2023-07-16T01:32:36;1.40;;;1.00;;
62258;SDS011;48241;48.824;10.102;2023-07-16T01:35:02;1.95;;;1.02;;
62258;SDS011;48241;48.824;10.102;2023-07-16T01:37:30;1.50;;;1.20;;
62258;SDS011;48241;48.824;10.102;2023-07-16T01:39:56;1.10;;;0.90;;
62258;SDS011;48241;48.824;10.102;2023-07-16T01:42:22;3.28;;;1.23;;
62258;SDS011;48241;48.824;10.102;2023-07-16T01:44:48;1.33;;;1.05;;
62258;SDS011;48241;48.824;10.102;2023-07-16T01:47:49;1.63;;;1.25;;
62258;SDS011;48241;48.824;10.102;2023-07-16T01:50:15;1.42;;;1.00;;
62258;SDS011;48241;48.824;10.102;2023-07-16T01:52:40;1.20;;;1.10;;
62258;SDS011;48241;48.824;10.102;2023-07-16T01:55:06;1.20;;;1.10;;
62258;SDS011;48241;48.824;10.102;2023-07-16T01:57:32;2.03;;;1.30;;
62258;SDS011;48241;48.824;10.102;2023-07-16T01:59:57;2.25;;;1.20;;
62258;SDS011;48241;48.824;10.102;2023-07-16T02:02:23;1.10;;;1.00;;
62258;SDS011;48241;48.824;10.102;2023-07-16T02:04:48;3.00;;;1.35;;
62258;SDS011;48241;48.824;10.102;2023-07-16T02:07:14;1.98;;;1.20;;
62258;SDS011;48241;48.824;10.102;2023-07-16T02:09:40;1.35;;;1.20;;
62258;SDS011;48241;48.824;10.102;2023-07-16T02:12:05;1.95;;;1.25;;
62258;SDS011;48241;48.824;10.102;2023-07-16T02:14:31;1.20;;;1.10;;
62258;SDS011;48241;48.824;10.102;2023-07-16T02:16:57;1.45;;;1.10;;
62258;SDS011;48241;48.824;10.102;2023-07-16T02:19:22;1.17;;;1.02;;
62258;SDS011;48241;48.824;10.102;2023-07-16T02:21:50;1.83;;;1.17;;
62258;SDS011;48241;48.824;10.102;2023-07-16T02:24:15;1.33;;;1.23;;
62258;SDS011;48241;48.824;10.102;2023-07-16T02:26:41;1.55;;;1.20;;
62258;SDS011;48241;48.824;10.102;2023-07-16T02:29:07;3.53;;;1.33;;
62258;SDS011;48241;48.824;10.102;2023-07-16T02:31:33;1.70;;;1.30;;
62258;SDS011;48241;48.824;10.102;2023-07-16T02:33:59;1.60;;;1.38;;
62258;SDS011;48241;48.824;10.102;2023-07-16T02:36:25;3.35;;;1.25;;
62258;SDS011;48241;48.824;10.102;2023-07-16T02:38:51;2.40;;;1.42;;
62258;SDS011;48241;48.824;10.102;2023-07-16T02:41:16;1.70;;;1.30;;
62258;SDS011;48241;48.824;10.102;2023-07-16T02:43:42;1.60;;;1.25;;
62258;SDS011;48241;48.824;10.102;2023-07-16T02:46:07;2.70;;;1.35;;
62258;SDS011;48241;48.824;10.102;2023-07-16T02:48:33;1.38;;;1.13;;
62258;SDS011;48241;48.824;10.102;2023-07-16T02:50:58;2.45;;;1.38;;
62258;SDS011;48241;48.824;10.102;2023-07-16T02:53:24;1.42;;;1.33;;
62258;SDS011;48241;48.824;10.102;2023-07-16T02:55:49;1.88;;;1.50;;
62258;SDS011;48241;48.824;10.102;2023-07-16T02:58:15;3.25;;;1.45;;
62258;SDS011;48241;48.824;10.102;2023-07-16T03:00:40;2.40;;;1.48;;
62258;SDS011;48241;48.824;10.102;2023-07-16T03:03:06;2.45;;;1.38;;
62258;SDS011;48241;48.824;10.102;2023-07-16T03:05:32;1.70;;;1.48;;
62258;SDS011;48241;48.824;10.102;2023-07-16T03:07:57;2.25;;;1.55;;
62258;SDS011;48241;48.824;10.102;2023-07-16T03:10:23;3.60;;;1.60;;
62258;SDS011;48241;48.824;10.102;2023-07-16T03:12:51;4.13;;;1.58;;
62258;SDS011;48241;48.824;10.102;2023-07-16T03:15:17;1.73;;;1.48;;
62258;SDS011;48241;48.824;10.102;2023-07-16T03:17:43;2.88;;;1.70;;
62258;SDS011;48241;48.824;10.102;2023-07-16T03:20:09;1.80;;;1.63;;
62258;SDS011;48241;48.824;10.102;2023-07-16T03:22:35;1.98;;;1.77;;
62258;SDS011;48241;48.824;10.102;2023-07-16T03:25:00;2.40;;;2.20;;
62258;SDS011;48241;48.824;10.102;2023-07-16T03:27:27;4.13;;;1.92;;
62258;SDS011;48241;48.824;10.102;2023-07-16T03:29:52;3.53;;;1.65;;
62258;SDS011;48241;48.824;10.102;2023-07-16T03:32:18;2.05;;;1.83;;
62258;SDS011;48241;48.824;10.102;2023-07-16T03:34:43;2.08;;;1.88;;
62258;SDS011;48241;48.824;10.102;2023-07-16T03:37:09;3.63;;;2.03;;
62258;SDS011;48241;48.824;10.102;2023-07-16T03:39:34;2.75;;;2.00;;
62258;SDS011;48241;48.824;10.102;2023-07-16T03:42:00;3.25;;;2.05;;
62258;SDS011;48241;48.824;10.102;2023-07-16T03:44:26;3.20;;;1.90;;
62258;SDS011;48241;48.824;10.102;2023-07-16T03:46:51;2.47;;;2.20;;
62258;SDS011;48241;48.824;10.102;2023-07-16T03:49:17;2.58;;;2.30;;
62258;SDS011;48241;48.824;10.102;2023-07-16T03:51:42;7.82;;;2.47;;
62258;SDS011;48241;48.824;10.102;2023-07-16T03:54:08;3.13;;;2.00;;
62258;SDS011;48241;48.824;10.102;2023-07-16T03:56:33;4.75;;;2.42;;
62258;SDS011;48241;48.824;10.102;2023-07-16T03:58:59;4.43;;;2.20;;
62258;SDS011;48241;48.824;10.102;2023-07-16T04:01:24;2.10;;;1.90;;
62258;SDS011;48241;48.824;10.102;2023-07-16T04:03:50;2.42;;;2.15;;
62258;SDS011;48241;48.824;10.102;2023-07-16T04:06:15;3.03;;;2.13;;
62258;SDS011;48241;48.824;10.102;2023-07-16T04:08:41;2.28;;;2.08;;
62258;SDS011;48241;48.824;10.102;2023-07-16T04:11:07;2.45;;;2.00;;
62258;SDS011;48241;48.824;10.102;2023-07-16T04:13:32;3.50;;;2.00;;
62258;SDS011;48241;48.824;10.102;2023-07-16T04:15:58;2.83;;;2.00;;
62258;SDS011;48241;48.824;10.102;2023-07-16T04:18:24;2.55;;;2.30;;
62258;SDS011;48241;48.824;10.102;2023-07-16T04:20:50;2.30;;;2.03;;
62258;SDS011;48241;48.824;10.102;2023-07-16T04:23:16;2.92;;;1.80;;
62258;SDS011;48241;48.824;10.102;2023-07-16T04:25:42;2.10;;;1.90;;
62258;SDS011;48241;48.824;10.102;2023-07-16T04:28:08;3.53;;;1.95;;
62258;SDS011;48241;48.824;10.102;2023-07-16T04:30:34;2.10;;;1.90;;
62258;SDS011;48241;48.824;10.102;2023-07-16T04:33:00;2.72;;;1.90;;
62258;SDS011;48241;48.824;10.102;2023-07-16T04:35:25;3.83;;;2.03;;
62258;SDS011;48241;48.824;10.102;2023-07-16T04:37:51;3.00;;;1.95;;
62258;SDS011;48241;48.824;10.102;2023-07-16T04:40:16;3.15;;;1.90;;
62258;SDS011;48241;48.824;10.102;2023-07-16T04:42:42;2.78;;;1.90;;
62258;SDS011;48241;48.824;10.102;2023-07-16T04:45:07;3.25;;;1.88;;
62258;SDS011;48241;48.824;10.102;2023-07-16T04:47:33;1.85;;;1.67;;
62258;SDS011;48241;48.824;10.102;2023-07-16T04:49:59;3.00;;;1.70;;
62258;SDS011;48241;48.824;10.102;2023-07-16T04:52:24;1.77;;;1.50;;
62258;SDS011;48241;48.824;10.102;2023-07-16T04:54:50;3.03;;;1.75;;
62258;SDS011;48241;48.824;10.102;2023-07-16T04:57:15;3.38;;;1.60;;
62258;SDS011;48241;48.824;10.102;2023-07-16T04:59:41;2.90;;;1.83;;
62258;SDS011;48241;48.824;10.102;2023-07-16T05:02:07;3.97;;;2.00;;
62258;SDS011;48241;48.824;10.102;2023-07-16T05:04:33;4.47;;;1.80;;
62258;SDS011;48241;48.824;10.102;2023-07-16T05:07:00;2.28;;;1.70;;
62258;SDS011;48241;48.824;10.102;2023-07-16T05:09:26;4.50;;;2.05;;
62258;SDS011;48241;48.824;10.102;2023-07-16T05:11:52;6.80;;;2.00;;
62258;SDS011;48241;48.824;10.102;2023-07-16T05:14:18;2.78;;;1.70;;
62258;SDS011;48241;48.824;10.102;2023-07-16T05:16:43;6.28;;;1.90;;
62258;SDS011;48241;48.824;10.102;2023-07-16T05:19:09;3.53;;;1.73;;
62258;SDS011;48241;48.824;10.102;2023-07-16T05:21:34;2.63;;;1.83;;
62258;SDS011;48241;48.824;10.102;2023-07-16T05:24:00;3.67;;;1.80;;
62258;SDS011;48241;48.824;10.102;2023-07-16T05:26:25;4.28;;;1.95;;
62258;SDS011;48241;48.824;10.102;2023-07-16T05:28:51;4.15;;;1.80;;
62258;SDS011;48241;48.824;10.102;2023-07-16T05:31:16;4.63;;;1.73;;
62258;SDS011;48241;48.824;10.102;2023-07-16T05:33:42;2.58;;;1.52;;
62258;SDS011;48241;48.824;10.102;2023-07-16T05:36:08;3.17;;;1.98;;
62258;SDS011;48241;48.824;10.102;2023-07-16T05:38:33;5.03;;;1.88;;
62258;SDS011;48241;48.824;10.102;2023-07-16T05:41:02;6.05;;;1.88;;
62258;SDS011;48241;48.824;10.102;2023-07-16T05:43:29;5.25;;;2.15;;
62258;SDS011;48241;48.824;10.102;2023-07-16T05:45:55;5.00;;;2.05;;
62258;SDS011;48241;48.824;10.102;2023-07-16T05:48:21;3.15;;;1.92;;
62258;SDS011;48241;48.824;10.102;2023-07-16T05:50:46;4.72;;;1.92;;
62258;SDS011;48241;48.824;10.102;2023-07-16T05:53:12;3.10;;;1.63;;
62258;SDS011;48241;48.824;10.102;2023-07-16T05:55:40;4.47;;;2.05;;
62258;SDS011;48241;48.824;10.102;2023-07-16T05:58:06;4.03;;;1.83;;
62258;SDS011;48241;48.824;10.102;2023-07-16T06:00:31;2.67;;;1.70;;
62258;SDS011;48241;48.824;10.102;2023-07-16T06:02:57;3.58;;;1.88;;
62258;SDS011;48241;48.824;10.102;2023-07-16T06:05:23;3.45;;;1.88;;
62258;SDS011;48241;48.824;10.102;2023-07-16T06:07:51;4.53;;;1.80;;
62258;SDS011;48241;48.824;10.102;2023-07-16T06:10:16;3.50;;;1.60;;
62258;SDS011;48241;48.824;10.102;2023-07-16T06:12:42;3.78;;;1.98;;
62258;SDS011;48241;48.824;10.102;2023-07-16T06:15:07;5.75;;;1.88;;
62258;SDS011;48241;48.824;10.102;2023-07-16T06:17:33;4.78;;;1.85;;
62258;SDS011;48241;48.824;10.102;2023-07-16T06:19:59;4.15;;;1.52;;
62258;SDS011;48241;48.824;10.102;2023-07-16T06:22:24;5.57;;;1.63;;
62258;SDS011;48241;48.824;10.102;2023-07-16T06:24:50;6.65;;;1.70;;
62258;SDS011;48241;48.824;10.102;2023-07-16T06:27:15;4.35;;;1.90;;
62258;SDS011;48241;48.824;10.102;2023-07-16T06:29:41;6.28;;;2.10;;
62258;SDS011;48241;48.824;10.102;2023-07-16T06:32:07;6.07;;;2.00;;
62258;SDS011;48241;48.824;10.102;2023-07-16T06:34:33;3.03;;;1.83;;
62258;SDS011;48241;48.824;10.102;2023-07-16T06:36:59;6.00;;;2.03;;
62258;SDS011;48241;48.824;10.102;2023-07-16T06:39:24;3.72;;;1.85;;
62258;SDS011;48241;48.824;10.102;2023-07-16T06:41:50;8.38;;;1.98;;
62258;SDS011;48241;48.824;10.102;2023-07-16T06:44:16;5.45;;;2.13;;
62258;SDS011;48241;48.824;10.102;2023-07-16T06:46:41;5.53;;;1.95;;
62258;SDS011;48241;48.824;10.102;2023-07-16T06:49:07;3.45;;;1.80;;
62258;SDS011;48241;48.824;10.102;2023-07-16T06:51:33;3.78;;;1.95;;
62258;SDS011;48241;48.824;10.102;2023-07-16T06:53:59;5.47;;;1.83;;
62258;SDS011;48241;48.824;10.102;2023-07-16T06:56:24;3.28;;;1.65;;
62258;SDS011;48241;48.824;10.102;2023-07-16T06:58:50;5.75;;;1.77;;
62258;SDS011;48241;48.824;10.102;2023-07-16T07:01:15;4.95;;;2.17;;
62258;SDS011;48241;48.824;10.102;2023-07-16T07:03:41;3.15;;;1.88;;
62258;SDS011;48241;48.824;10.102;2023-07-16T07:06:06;4.57;;;1.73;;
62258;SDS011;48241;48.824;10.102;2023-07-16T07:08:35;3.65;;;1.50;;
62258;SDS011;48241;48.824;10.102;2023-07-16T07:11:01;3.05;;;1.52;;
62258;SDS011;48241;48.824;10.102;2023-07-16T07:13:27;3.35;;;1.40;;
62258;SDS011;48241;48.824;10.102;2023-07-16T07:15:54;3.42;;;1.60;;
62258;SDS011;48241;48.824;10.102;2023-07-16T07:18:20;5.22;;;1.70;;
62258;SDS011;48241;48.824;10.102;2023-07-16T07:20:46;4.75;;;1.70;;
62258;SDS011;48241;48.824;10.102;2023-07-16T07:23:12;4.25;;;1.50;;
62258;SDS011;48241;48.824;10.102;2023-07-16T07:25:38;5.07;;;1.95;;
62258;SDS011;48241;48.824;10.102;2023-07-16T07:28:04;2.55;;;1.60;;
62258;SDS011;48241;48.824;10.102;2023-07-16T07:30:29;4.15;;;1.67;;
62258;SDS011;48241;48.824;10.102;2023-07-16T07:32:55;3.35;;;1.50;;
62258;SDS011;48241;48.824;10.102;2023-07-16T07:35:21;4.97;;;1.70;;
62258;SDS011;48241;48.824;10.102;2023-07-16T07:37:46;3.88;;;1.75;;
62258;SDS011;48241;48.824;10.102;2023-07-16T07:40:12;5.35;;;1.50;;
62258;SDS011;48241;48.824;10.102;2023-07-16T07:42:38;3.80;;;1.42;;
62258;SDS011;48241;48.824;10.102;2023-07-16T07:45:04;3.90;;;1.50;;
62258;SDS011;48241;48.824;10.102;2023-07-16T07:47:30;3.45;;;1.50;;
62258;SDS011;48241;48.824;10.102;2023-07-16T07:49:55;3.75;;;1.70;;
62258;SDS011;48241;48.824;10.102;2023-07-16T07:52:21;2.72;;;1.30;;
62258;SDS011;48241;48.824;10.102;2023-07-16T07:54:46;2.90;;;1.40;;
62258;SDS011;48241;48.824;10.102;2023-07-16T07:57:12;4.05;;;1.60;;
62258;SDS011;48241;48.824;10.102;2023-07-16T07:59:38;2.10;;;1.40;;
62258;SDS011;48241;48.824;10.102;2023-07-16T08:02:03;3.05;;;1.42;;
62258;SDS011;48241;48.824;10.102;2023-07-16T08:04:29;2.53;;;1.50;;
62258;SDS011;48241;48.824;10.102;2023-07-16T08:06:57;3.00;;;1.40;;
62258;SDS011;48241;48.824;10.102;2023-07-16T08:09:23;1.90;;;1.35;;
62258;SDS011;48241;48.824;10.102;2023-07-16T08:11:50;3.33;;;1.65;;
62258;SDS011;48241;48.824;10.102;2023-07-16T08:14:16;3.63;;;1.52;;
62258;SDS011;48241;48.824;10.102;2023-07-16T08:16:41;2.42;;;1.35;;
62258;SDS011;48241;48.824;10.102;2023-07-16T08:19:07;3.55;;;1.60;;
62258;SDS011;48241;48.824;10.102;2023-07-16T08:21:33;4.35;;;1.40;;
62258;SDS011;48241;48.824;10.102;2023-07-16T08:23:59;3.15;;;1.45;;
62258;SDS011;48241;48.824;10.102;2023-07-16T08:26:24;2.67;;;1.48;;
62258;SDS011;48241;48.824;10.102;2023-07-16T08:28:50;4.38;;;1.67;;
62258;SDS011;48241;48.824;10.102;2023-07-16T08:31:15;3.55;;;1.50;;
62258;SDS011;48241;48.824;10.102;2023-07-16T08:33:41;3.42;;;1.48;;
62258;SDS011;48241;48.824;10.102;2023-07-16T08:36:07;3.17;;;1.50;;
62258;SDS011;48241;48.824;10.102;2023-07-16T08:38:32;3.22;;;1.65;;
62258;SDS011;48241;48.824;10.102;2023-07-16T08:40:59;2.60;;;1.35;;
62258;SDS011;48241;48.824;10.102;2023-07-16T08:43:25;4.05;;;1.48;;
62258;SDS011;48241;48.824;10.102;2023-07-16T08:45:52;4.40;;;1.40;;
62258;SDS011;48241;48.824;10.102;2023-07-16T08:48:18;4.65;;;1.42;;
62258;SDS011;48241;48.824;10.102;2023-07-16T08:50:45;3.65;;;1.27;;
62258;SDS011;48241;48.824;10.102;2023-07-16T08:53:12;4.00;;;1.85;;
62258;SDS011;48241;48.824;10.102;2023-07-16T08:55:40;2.63;;;1.33;;
62258;SDS011;48241;48.824;10.102;2023-07-16T08:58:06;3.72;;;1.42;;
62258;SDS011;48241;48.824;10.102;2023-07-16T09:00:32;3.17;;;1.52;;
62258;SDS011;48241;48.824;10.102;2023-07-16T09:02:59;3.22;;;1.63;;
62258;SDS011;48241;48.824;10.102;2023-07-16T09:05:25;3.13;;;1.65;;
62258;SDS011;48241;48.824;10.102;2023-07-16T09:07:50;3.33;;;1.60;;
62258;SDS011;48241;48.824;10.102;2023-07-16T09:10:16;4.10;;;1.80;;
62258;SDS011;48241;48.824;10.102;2023-07-16T09:12:43;3.35;;;1.50;;
62258;SDS011;48241;48.824;10.102;2023-07-16T09:15:10;4.28;;;1.55;;
62258;SDS011;48241;48.824;10.102;2023-07-16T09:17:36;4.28;;;1.42;;
62258;SDS011;48241;48.824;10.102;2023-07-16T09:20:03;4.43;;;1.30;;
62258;SDS011;48241;48.824;10.102;2023-07-16T09:22:31;3.35;;;1.42;;
62258;SDS011;48241;48.824;10.102;2023-07-16T09:24:59;3.65;;;1.50;;
62258;SDS011;48241;48.824;10.102;2023-07-16T09:27:28;4.53;;;1.60;;
62258;SDS011;48241;48.824;10.102;2023-07-16T09:29:54;3.33;;;1.42;;
62258;SDS011;48241;48.824;10.102;2023-07-16T09:32:20;4.68;;;1.63;;
62258;SDS011;48241;48.824;10.102;2023-07-16T09:34:48;3.30;;;1.48;;
62258;SDS011;48241;48.824;10.102;2023-07-16T09:37:15;3.40;;;1.42;;
62258;SDS011;48241;48.824;10.102;2023-07-16T09:39:43;4.60;;;1.63;;
62258;SDS011;48241;48.824;10.102;2023-07-16T09:42:11;4.00;;;1.60;;
62258;SDS011;48241;48.824;10.102;2023-07-16T09:44:38;3.10;;;1.45;;
62258;SDS011;48241;48.824;10.102;2023-07-16T09:47:06;3.85;;;1.60;;
62258;SDS011;48241;48.824;10.102;2023-07-16T09:49:32;4.32;;;1.48;;
62258;SDS011;48241;48.824;10.102;2023-07-16T09:51:57;3.85;;;1.70;;
62258;SDS011;48241;48.824;10.102;2023-07-16T09:54:26;2.63;;;1.40;;
62258;SDS011;48241;48.824;10.102;2023-07-16T09:56:56;3.20;;;1.48;;
62258;SDS011;48241;48.824;10.102;2023-07-16T09:59:25;2.85;;;1.50;;
62258;SDS011;48241;48.824;10.102;2023-07-16T10:01:54;3.03;;;1.40;;
62258;SDS011;48241;48.824;10.102;2023-07-16T10:04:21;3.60;;;1.70;;
62258;SDS011;48241;48.824;10.102;2023-07-16T10:06:58;3.53;;;1.45;;
62258;SDS011;48241;48.824;10.102;2023-07-16T10:12:16;2.23;;;1.43;;
62258;SDS011;48241;48.824;10.102;2023-07-16T10:14:44;5.60;;;1.50;;
62258;SDS011;48241;48.824;10.102;2023-07-16T10:17:23;3.47;;;1.50;;
62258;SDS011;48241;48.824;10.102;2023-07-16T10:19:50;2.40;;;1.30;;
62258;SDS011;48241;48.824;10.102;2023-07-16T10:25:21;3.63;;;1.52;;
62258;SDS011;48241;48.824;10.102;2023-07-16T10:27:51;3.42;;;1.60;;
62258;SDS011;48241;48.824;10.102;2023-07-16T10:30:17;4.75;;;1.55;;
62258;SDS011;48241;48.824;10.102;2023-07-16T10:32:43;4.20;;;1.67;;
62258;SDS011;48241;48.824;10.102;2023-07-16T10:35:10;4.53;;;1.70;;
62258;SDS011;48241;48.824;10.102;2023-07-16T10:37:37;3.97;;;1.25;;
62258;SDS011;48241;48.824;10.102;2023-07-16T10:40:03;4.40;;;1.45;;
62258;SDS011;48241;48.824;10.102;2023-07-16T10:42:31;3.03;;;1.60;;
62258;SDS011;48241;48.824;10.102;2023-07-16T10:44:58;3.03;;;1.80;;
62258;SDS011;48241;48.824;10.102;2023-07-16T10:47:29;4.47;;;1.65;;
62258;SDS011;48241;48.824;10.102;2023-07-16T10:49:59;4.18;;;1.70;;
62258;SDS011;48241;48.824;10.102;2023-07-16T10:52:28;3.88;;;1.90;;
62258;SDS011;48241;48.824;10.102;2023-07-16T10:54:54;2.85;;;1.48;;
62258;SDS011;48241;48.824;10.102;2023-07-16T10:57:20;5.35;;;1.73;;
62258;SDS011;48241;48.824;10.102;2023-07-16T10:59:47;2.80;;;1.60;;
62258;SDS011;48241;48.824;10.102;2023-07-16T11:02:14;3.35;;;1.80;;
62258;SDS011;48241;48.824;10.102;2023-07-16T11:04:42;3.08;;;1.50;;
62258;SDS011;48241;48.824;10.102;2023-07-16T11:07:09;3.28;;;1.50;;
62258;SDS011;48241;48.824;10.102;2023-07-16T11:09:42;2.88;;;1.60;;
62258;SDS011;48241;48.824;10.102;2023-07-16T11:12:11;3.87;;;1.87;;
62258;SDS011;48241;48.824;10.102;2023-07-16T11:14:37;3.45;;;1.52;;
62258;SDS011;48241;48.824;10.102;2023-07-16T11:17:07;3.05;;;1.60;;
62258;SDS011;48241;48.824;10.102;2023-07-16T11:19:37;2.40;;;1.60;;
62258;SDS011;48241;48.824;10.102;2023-07-16T11:22:03;2.45;;;1.58;;
62258;SDS011;48241;48.824;10.102;2023-07-16T11:24:37;3.85;;;1.67;;
62258;SDS011;48241;48.824;10.102;2023-07-16T11:27:03;3.85;;;1.85;;
62258;SDS011;48241;48.824;10.102;2023-07-16T11:29:35;2.40;;;1.67;;
62258;SDS011;48241;48.824;10.102;2023-07-16T11:32:01;2.78;;;1.80;;
62258;SDS011;48241;48.824;10.102;2023-07-16T11:34:27;1.90;;;1.50;;
62258;SDS011;48241;48.824;10.102;2023-07-16T11:36:52;3.15;;;1.80;;
62258;SDS011;48241;48.824;10.102;2023-07-16T11:39:18;4.43;;;1.80;;
62258;SDS011;48241;48.824;10.102;2023-07-16T11:41:57;2.72;;;1.70;;
62258;SDS011;48241;48.824;10.102;2023-07-16T11:44:23;3.08;;;1.63;;
62258;SDS011;48241;48.824;10.102;2023-07-16T11:46:49;3.97;;;1.65;;
62258;SDS011;48241;48.824;10.102;2023-07-16T11:49:15;3.00;;;1.73;;
62258;SDS011;48241;48.824;10.102;2023-07-16T11:51:40;2.75;;;1.58;;
62258;SDS011;48241;48.824;10.102;2023-07-16T11:54:08;2.30;;;1.65;;
62258;SDS011;48241;48.824;10.102;2023-07-16T11:56:35;1.85;;;1.33;;
62258;SDS011;48241;48.824;10.102;2023-07-16T11:59:00;2.95;;;1.58;;
62258;SDS011;48241;48.824;10.102;2023-07-16T12:01:26;3.08;;;1.42;;
62258;SDS011;48241;48.824;10.102;2023-07-16T12:03:51;2.83;;;1.60;;
62258;SDS011;48241;48.824;10.102;2023-07-16T12:06:17;2.58;;;1.60;;
62258;SDS011;48241;48.824;10.102;2023-07-16T12:08:42;3.70;;;1.77;;
62258;SDS011;48241;48.824;10.102;2023-07-16T12:11:08;2.58;;;1.60;;
62258;SDS011;48241;48.824;10.102;2023-07-16T12:13:33;1.92;;;1.50;;
62258;SDS011;48241;48.824;10.102;2023-07-16T12:15:59;3.55;;;1.60;;
62258;SDS011;48241;48.824;10.102;2023-07-16T12:18:25;4.30;;;1.75;;
62258;SDS011;48241;48.824;10.102;2023-07-16T12:20:50;2.97;;;1.70;;
62258;SDS011;48241;48.824;10.102;2023-07-16T12:23:16;2.70;;;1.42;;
62258;SDS011;48241;48.824;10.102;2023-07-16T12:25:41;3.35;;;1.75;;
62258;SDS011;48241;48.824;10.102;2023-07-16T12:28:08;4.22;;;1.80;;
62258;SDS011;48241;48.824;10.102;2023-07-16T12:30:34;2.50;;;1.48;;
62258;SDS011;48241;48.824;10.102;2023-07-16T12:32:59;2.88;;;1.50;;
62258;SDS011;48241;48.824;10.102;2023-07-16T12:35:25;2.00;;;1.70;;
62258;SDS011;48241;48.824;10.102;2023-07-16T12:37:51;4.07;;;2.30;;
62258;SDS011;48241;48.824;10.102;2023-07-16T12:40:16;3.30;;;1.77;;
62258;SDS011;48241;48.824;10.102;2023-07-16T12:42:42;3.08;;;1.90;;
62258;SDS011;48241;48.824;10.102;2023-07-16T12:45:08;2.30;;;1.48;;
62258;SDS011;48241;48.824;10.102;2023-07-16T12:47:33;4.07;;;1.55;;
62258;SDS011;48241;48.824;10.102;2023-07-16T12:49:59;2.30;;;1.50;;
62258;SDS011;48241;48.824;10.102;2023-07-16T12:52:24;2.05;;;1.60;;
62258;SDS011;48241;48.824;10.102;2023-07-16T12:54:50;2.20;;;1.50;;
62258;SDS011;48241;48.824;10.102;2023-07-16T12:57:16;1.90;;;1.40;;
62258;SDS011;48241;48.824;10.102;2023-07-16T12:59:42;2.08;;;1.60;;
62258;SDS011;48241;48.824;10.102;2023-07-16T13:02:07;2.88;;;1.40;;
62258;SDS011;48241;48.824;10.102;2023-07-16T13:04:33;2.58;;;1.30;;
62258;SDS011;48241;48.824;10.102;2023-07-16T13:06:59;1.60;;;1.40;;
62258;SDS011;48241;48.824;10.102;2023-07-16T13:09:24;2.85;;;1.50;;
62258;SDS011;48241;48.824;10.102;2023-07-16T13:11:50;2.08;;;1.30;;
62258;SDS011;48241;48.824;10.102;2023-07-16T13:14:16;2.17;;;1.25;;
62258;SDS011;48241;48.824;10.102;2023-07-16T13:16:42;2.83;;;2.15;;
62258;SDS011;48241;48.824;10.102;2023-07-16T13:19:07;4.95;;;3.35;;
62258;SDS011;48241;48.824;10.102;2023-07-16T13:21:33;4.22;;;2.75;;
62258;SDS011;48241;48.824;10.102;2023-07-16T13:23:59;3.85;;;1.70;;
62258;SDS011;48241;48.824;10.102;2023-07-16T13:26:24;2.88;;;1.42;;
62258;SDS011;48241;48.824;10.102;2023-07-16T13:28:50;2.72;;;1.40;;
62258;SDS011;48241;48.824;10.102;2023-07-16T13:31:17;2.83;;;1.70;;
62258;SDS011;48241;48.824;10.102;2023-07-16T13:33:42;3.85;;;1.50;;
62258;SDS011;48241;48.824;10.102;2023-07-16T13:36:08;1.92;;;1.60;;
62258;SDS011;48241;48.824;10.102;2023-07-16T13:38:34;1.67;;;1.50;;
62258;SDS011;48241;48.824;10.102;2023-07-16T13:40:59;2.30;;;1.58;;
62258;SDS011;48241;48.824;10.102;2023-07-16T13:43:25;2.80;;;1.67;;
62258;SDS011;48241;48.824;10.102;2023-07-16T13:45:50;2.95;;;1.50;;
62258;SDS011;48241;48.824;10.102;2023-07-16T13:48:16;3.05;;;1.60;;
62258;SDS011;48241;48.824;10.102;2023-07-16T13:50:41;3.92;;;1.73;;
62258;SDS011;48241;48.824;10.102;2023-07-16T13:53:07;2.47;;;1.50;;
62258;SDS011;48241;48.824;10.102;2023-07-16T13:58:33;2.40;;;1.60;;
62258;SDS011;48241;48.824;10.102;2023-07-16T14:00:59;2.75;;;1.50;;
62258;SDS011;48241;48.824;10.102;2023-07-16T14:03:24;2.97;;;1.65;;
62258;SDS011;48241;48.824;10.102;2023-07-16T14:05:51;3.05;;;1.60;;
62258;SDS011;48241;48.824;10.102;2023-07-16T14:08:17;2.50;;;1.45;;
62258;SDS011;48241;48.824;10.102;2023-07-16T14:10:42;2.33;;;1.70;;
62258;SDS011;48241;48.824;10.102;2023-07-16T14:13:08;2.47;;;1.50;;
62258;SDS011;48241;48.824;10.102;2023-07-16T14:15:33;3.40;;;1.70;;
62258;SDS011;48241;48.824;10.102;2023-07-16T14:18:00;2.25;;;1.30;;
62258;SDS011;48241;48.824;10.102;2023-07-16T14:20:25;3.20;;;1.50;;
62258;SDS011;48241;48.824;10.102;2023-07-16T14:22:51;2.00;;;1.27;;
62258;SDS011;48241;48.824;10.102;2023-07-16T14:25:17;2.97;;;1.42;;
62258;SDS011;48241;48.824;10.102;2023-07-16T14:27:43;2.92;;;1.20;;
62258;SDS011;48241;48.824;10.102;2023-07-16T14:30:08;2.45;;;1.20;;
62258;SDS011;48241;48.824;10.102;2023-07-16T14:32:35;2.50;;;1.70;;
62258;SDS011;48241;48.824;10.102;2023-07-16T14:35:01;2.65;;;1.45;;
62258;SDS011;48241;48.824;10.102;2023-07-16T14:37:28;2.22;;;1.40;;
62258;SDS011;48241;48.824;10.102;2023-07-16T14:39:54;1.92;;;1.40;;
62258;SDS011;48241;48.824;10.102;2023-07-16T14:42:19;2.33;;;1.67;;